sensor_id;sensor_type;location;lat;lon;timestamp;temperature;humidity
41694;DHT22;27377;50.666;9.150;2022-10-22T00:01:41;14.10;99.90
41694;DHT22;27377;50.666;9.150;2022-10-22T00:04:06;14.10;99.90
41694;DHT22;27377;50.666;9.150;2022-10-22T00:06:32;14.10;99.90
41694;DHT22;27377;50.666;9.150;2022-10-22T00:09:00;14.10;99.90
41694;DHT22;27377;50.666;9.150;2022-10-22T00:11:26;14.10;99.90
41694;DHT22;27377;50.666;9.150;2022-10-22T00:13:51;14.10;99.90
41694;DHT22;27377;50.666;9.150;2022-10-22T00:16:17;14.10;99.90
41694;DHT22;27377;50.666;9.150;2022-10-22T00:18:43;14.10;99.90
41694;DHT22;27377;50.666;9.150;2022-10-22T00:21:08;14.10;99.90
41694;DHT22;27377;50.666;9.150;2022-10-22T00:23:34;14.10;99.90
41694;DHT22;27377;50.666;9.150;2022-10-22T00:26:00;14.10;99.90
41694;DHT22;27377;50.666;9.150;2022-10-22T00:28:25;14.10;99.90
41694;DHT22;27377;50.666;9.150;2022-10-22T00:30:55;14.10;99.90
41694;DHT22;27377;50.666;9.150;2022-10-22T00:33:21;14.10;99.90
41694;DHT22;27377;50.666;9.150;2022-10-22T00:35:47;14.10;99.90
41694;DHT22;27377;50.666;9.150;2022-10-22T00:38:12;14.00;99.90
41694;DHT22;27377;50.666;9.150;2022-10-22T00:40:38;14.10;99.90
41694;DHT22;27377;50.666;9.150;2022-10-22T00:43:03;14.10;99.90
41694;DHT22;27377;50.666;9.150;2022-10-22T00:45:29;14.10;99.90
41694;DHT22;27377;50.666;9.150;2022-10-22T00:48:03;14.20;99.90
41694;DHT22;27377;50.666;9.150;2022-10-22T00:50:49;14.20;99.90
41694;DHT22;27377;50.666;9.150;2022-10-22T00:53:23;14.20;99.90
41694;DHT22;27377;50.666;9.150;2022-10-22T00:55:51;14.20;99.90
41694;DHT22;27377;50.666;9.150;2022-10-22T00:58:19;14.20;99.90
41694;DHT22;27377;50.666;9.150;2022-10-22T01:00:46;14.20;99.90
41694;DHT22;27377;50.666;9.150;2022-10-22T01:03:12;14.30;99.90
41694;DHT22;27377;50.666;9.150;2022-10-22T01:06:08;14.20;99.90
41694;DHT22;27377;50.666;9.150;2022-10-22T01:08:51;14.20;99.90
41694;DHT22;27377;50.666;9.150;2022-10-22T01:11:26;14.30;99.90
41694;DHT22;27377;50.666;9.150;2022-10-22T01:16:35;14.30;99.90
41694;DHT22;27377;50.666;9.150;2022-10-22T01:22:01;14.30;99.90
41694;DHT22;27377;50.666;9.150;2022-10-22T01:30:09;14.30;99.90
41694;DHT22;27377;50.666;9.150;2022-10-22T01:32:46;14.30;99.90
41694;DHT22;27377;50.666;9.150;2022-10-22T01:35:17;14.30;99.90
41694;DHT22;27377;50.666;9.150;2022-10-22T01:37:56;14.30;99.90
41694;DHT22;27377;50.666;9.150;2022-10-22T01:40:24;14.30;99.90
41694;DHT22;27377;50.666;9.150;2022-10-22T01:43:05;14.30;99.90
41694;DHT22;27377;50.666;9.150;2022-10-22T01:45:36;14.30;99.90
41694;DHT22;27377;50.666;9.150;2022-10-22T01:48:25;14.30;99.90
41694;DHT22;27377;50.666;9.150;2022-10-22T01:56:34;14.30;99.90
41694;DHT22;27377;50.666;9.150;2022-10-22T02:04:52;14.30;99.90
41694;DHT22;27377;50.666;9.150;2022-10-22T02:07:25;14.20;99.90
41694;DHT22;27377;50.666;9.150;2022-10-22T02:09:52;14.20;99.90
41694;DHT22;27377;50.666;9.150;2022-10-22T02:12:19;14.20;99.90
41694;DHT22;27377;50.666;9.150;2022-10-22T02:14:47;14.20;99.90
41694;DHT22;27377;50.666;9.150;2022-10-22T02:17:17;14.20;99.90
41694;DHT22;27377;50.666;9.150;2022-10-22T02:20:35;14.20;99.90
41694;DHT22;27377;50.666;9.150;2022-10-22T02:22:35;14.20;99.90
41694;DHT22;27377;50.666;9.150;2022-10-22T02:25:03;14.20;99.90
41694;DHT22;27377;50.666;9.150;2022-10-22T02:27:34;14.10;99.90
41694;DHT22;27377;50.666;9.150;2022-10-22T02:30:07;14.10;99.90
41694;DHT22;27377;50.666;9.150;2022-10-22T02:33:01;14.20;99.90
41694;DHT22;27377;50.666;9.150;2022-10-22T02:35:28;14.20;99.90
41694;DHT22;27377;50.666;9.150;2022-10-22T02:37:56;14.10;99.90
41694;DHT22;27377;50.666;9.150;2022-10-22T02:40:22;14.20;99.90
41694;DHT22;27377;50.666;9.150;2022-10-22T02:42:49;14.20;99.90
41694;DHT22;27377;50.666;9.150;2022-10-22T02:45:16;14.20;99.90
41694;DHT22;27377;50.666;9.150;2022-10-22T02:47:43;14.20;99.90
41694;DHT22;27377;50.666;9.150;2022-10-22T02:50:08;14.20;99.90
41694;DHT22;27377;50.666;9.150;2022-10-22T02:52:34;14.20;99.90
41694;DHT22;27377;50.666;9.150;2022-10-22T02:55:00;14.20;99.90
41694;DHT22;27377;50.666;9.150;2022-10-22T02:57:26;14.20;99.90
41694;DHT22;27377;50.666;9.150;2022-10-22T02:59:51;14.20;99.90
41694;DHT22;27377;50.666;9.150;2022-10-22T03:02:17;14.20;99.90
41694;DHT22;27377;50.666;9.150;2022-10-22T03:04:42;14.20;99.90
41694;DHT22;27377;50.666;9.150;2022-10-22T03:07:08;14.20;99.90
41694;DHT22;27377;50.666;9.150;2022-10-22T03:09:34;14.20;99.90
41694;DHT22;27377;50.666;9.150;2022-10-22T03:11:59;14.20;99.90
41694;DHT22;27377;50.666;9.150;2022-10-22T03:14:25;14.20;99.90
41694;DHT22;27377;50.666;9.150;2022-10-22T03:16:50;14.20;99.90
41694;DHT22;27377;50.666;9.150;2022-10-22T03:19:16;14.20;99.90
41694;DHT22;27377;50.666;9.150;2022-10-22T03:21:48;14.20;99.90
41694;DHT22;27377;50.666;9.150;2022-10-22T03:24:17;14.20;99.90
41694;DHT22;27377;50.666;9.150;2022-10-22T03:26:45;14.20;99.90
41694;DHT22;27377;50.666;9.150;2022-10-22T03:29:12;14.20;99.90
41694;DHT22;27377;50.666;9.150;2022-10-22T03:31:39;14.20;99.90
41694;DHT22;27377;50.666;9.150;2022-10-22T03:34:05;14.20;99.90
41694;DHT22;27377;50.666;9.150;2022-10-22T03:36:31;14.20;99.90
41694;DHT22;27377;50.666;9.150;2022-10-22T03:38:58;14.20;99.90
41694;DHT22;27377;50.666;9.150;2022-10-22T03:41:24;14.20;99.90
41694;DHT22;27377;50.666;9.150;2022-10-22T03:43:50;14.10;99.90
41694;DHT22;27377;50.666;9.150;2022-10-22T03:46:18;14.10;99.90
41694;DHT22;27377;50.666;9.150;2022-10-22T03:48:44;14.10;99.90
41694;DHT22;27377;50.666;9.150;2022-10-22T03:51:10;14.10;99.90
41694;DHT22;27377;50.666;9.150;2022-10-22T03:53:35;14.10;99.90
41694;DHT22;27377;50.666;9.150;2022-10-22T03:56:01;14.10;99.90
41694;DHT22;27377;50.666;9.150;2022-10-22T03:58:26;14.10;99.90
41694;DHT22;27377;50.666;9.150;2022-10-22T04:00:52;14.00;99.90
41694;DHT22;27377;50.666;9.150;2022-10-22T04:03:18;14.00;99.90
41694;DHT22;27377;50.666;9.150;2022-10-22T04:05:43;14.00;99.90
41694;DHT22;27377;50.666;9.150;2022-10-22T04:08:09;14.00;99.90
41694;DHT22;27377;50.666;9.150;2022-10-22T04:10:34;14.00;99.90
41694;DHT22;27377;50.666;9.150;2022-10-22T04:13:00;14.00;99.90
41694;DHT22;27377;50.666;9.150;2022-10-22T04:15:25;13.90;99.90
41694;DHT22;27377;50.666;9.150;2022-10-22T04:17:53;13.90;99.90
41694;DHT22;27377;50.666;9.150;2022-10-22T04:20:19;13.90;99.90
41694;DHT22;27377;50.666;9.150;2022-10-22T04:22:44;13.90;99.90
41694;DHT22;27377;50.666;9.150;2022-10-22T04:25:10;13.90;99.90
41694;DHT22;27377;50.666;9.150;2022-10-22T04:27:35;13.90;99.90
41694;DHT22;27377;50.666;9.150;2022-10-22T04:30:02;13.90;99.90
41694;DHT22;27377;50.666;9.150;2022-10-22T04:32:28;13.80;99.90
41694;DHT22;27377;50.666;9.150;2022-10-22T04:34:54;13.80;99.90
41694;DHT22;27377;50.666;9.150;2022-10-22T04:37:19;13.80;99.90
41694;DHT22;27377;50.666;9.150;2022-10-22T04:39:45;13.80;99.90
41694;DHT22;27377;50.666;9.150;2022-10-22T04:42:10;13.80;99.90
41694;DHT22;27377;50.666;9.150;2022-10-22T04:44:37;13.70;99.90
41694;DHT22;27377;50.666;9.150;2022-10-22T04:47:03;13.70;99.90
41694;DHT22;27377;50.666;9.150;2022-10-22T04:49:28;13.70;99.90
41694;DHT22;27377;50.666;9.150;2022-10-22T04:51:54;13.70;99.90
41694;DHT22;27377;50.666;9.150;2022-10-22T04:54:19;13.70;99.90
41694;DHT22;27377;50.666;9.150;2022-10-22T04:56:45;13.60;99.90
41694;DHT22;27377;50.666;9.150;2022-10-22T04:59:11;13.60;99.90
41694;DHT22;27377;50.666;9.150;2022-10-22T05:01:40;13.60;99.90
41694;DHT22;27377;50.666;9.150;2022-10-22T05:04:08;13.60;99.90
41694;DHT22;27377;50.666;9.150;2022-10-22T05:06:35;13.60;99.90
41694;DHT22;27377;50.666;9.150;2022-10-22T05:09:04;13.60;99.90
41694;DHT22;27377;50.666;9.150;2022-10-22T05:11:35;13.60;99.90
41694;DHT22;27377;50.666;9.150;2022-10-22T05:14:03;13.50;99.90
41694;DHT22;27377;50.666;9.150;2022-10-22T05:16:30;13.50;99.90
41694;DHT22;27377;50.666;9.150;2022-10-22T05:18:58;13.50;99.90
41694;DHT22;27377;50.666;9.150;2022-10-22T05:21:24;13.50;99.90
41694;DHT22;27377;50.666;9.150;2022-10-22T05:23:50;13.50;99.90
41694;DHT22;27377;50.666;9.150;2022-10-22T05:26:18;13.50;99.90
41694;DHT22;27377;50.666;9.150;2022-10-22T05:28:46;13.50;99.90
41694;DHT22;27377;50.666;9.150;2022-10-22T05:31:12;13.50;99.90
41694;DHT22;27377;50.666;9.150;2022-10-22T05:33:38;13.50;99.90
41694;DHT22;27377;50.666;9.150;2022-10-22T05:36:06;13.50;99.90
41694;DHT22;27377;50.666;9.150;2022-10-22T05:38:33;13.50;99.90
41694;DHT22;27377;50.666;9.150;2022-10-22T05:41:07;13.50;99.90
41694;DHT22;27377;50.666;9.150;2022-10-22T05:43:34;13.50;99.90
41694;DHT22;27377;50.666;9.150;2022-10-22T05:46:06;13.50;99.90
41694;DHT22;27377;50.666;9.150;2022-10-22T05:48:32;13.50;99.90
41694;DHT22;27377;50.666;9.150;2022-10-22T05:51:06;13.60;99.90
41694;DHT22;27377;50.666;9.150;2022-10-22T05:53:33;13.60;99.90
41694;DHT22;27377;50.666;9.150;2022-10-22T05:56:01;13.60;99.90
41694;DHT22;27377;50.666;9.150;2022-10-22T05:58:26;13.60;99.90
41694;DHT22;27377;50.666;9.150;2022-10-22T06:00:52;13.60;99.90
41694;DHT22;27377;50.666;9.150;2022-10-22T06:03:17;13.70;99.90
41694;DHT22;27377;50.666;9.150;2022-10-22T06:05:43;13.70;99.90
41694;DHT22;27377;50.666;9.150;2022-10-22T06:08:11;13.70;99.90
41694;DHT22;27377;50.666;9.150;2022-10-22T06:10:41;13.70;99.90
41694;DHT22;27377;50.666;9.150;2022-10-22T06:13:07;13.70;99.90
41694;DHT22;27377;50.666;9.150;2022-10-22T06:15:32;13.70;99.90
41694;DHT22;27377;50.666;9.150;2022-10-22T06:17:58;13.70;99.90
41694;DHT22;27377;50.666;9.150;2022-10-22T06:20:23;13.70;99.90
41694;DHT22;27377;50.666;9.150;2022-10-22T06:22:49;13.70;99.90
41694;DHT22;27377;50.666;9.150;2022-10-22T06:25:15;13.70;99.90
41694;DHT22;27377;50.666;9.150;2022-10-22T06:27:40;13.70;99.90
41694;DHT22;27377;50.666;9.150;2022-10-22T06:30:06;13.70;99.90
41694;DHT22;27377;50.666;9.150;2022-10-22T06:32:32;13.80;99.90
41694;DHT22;27377;50.666;9.150;2022-10-22T06:34:57;13.80;99.90
41694;DHT22;27377;50.666;9.150;2022-10-22T06:37:23;13.80;99.90
41694;DHT22;27377;50.666;9.150;2022-10-22T06:39:49;13.80;99.90
41694;DHT22;27377;50.666;9.150;2022-10-22T06:42:14;13.80;99.90
41694;DHT22;27377;50.666;9.150;2022-10-22T06:44:40;13.80;99.90
41694;DHT22;27377;50.666;9.150;2022-10-22T06:47:05;13.80;99.90
41694;DHT22;27377;50.666;9.150;2022-10-22T06:49:31;13.80;99.90
41694;DHT22;27377;50.666;9.150;2022-10-22T06:51:56;13.80;99.90
41694;DHT22;27377;50.666;9.150;2022-10-22T06:54:22;13.80;99.90
41694;DHT22;27377;50.666;9.150;2022-10-22T06:56:48;13.80;99.90
41694;DHT22;27377;50.666;9.150;2022-10-22T06:59:14;13.80;99.90
41694;DHT22;27377;50.666;9.150;2022-10-22T07:01:39;13.80;99.90
41694;DHT22;27377;50.666;9.150;2022-10-22T07:04:05;13.80;99.90
41694;DHT22;27377;50.666;9.150;2022-10-22T07:06:31;13.80;99.90
41694;DHT22;27377;50.666;9.150;2022-10-22T07:08:58;13.90;99.90
41694;DHT22;27377;50.666;9.150;2022-10-22T07:11:27;13.80;99.90
41694;DHT22;27377;50.666;9.150;2022-10-22T07:13:54;13.90;99.90
41694;DHT22;27377;50.666;9.150;2022-10-22T07:16:20;13.90;99.90
41694;DHT22;27377;50.666;9.150;2022-10-22T07:18:46;13.90;99.90
41694;DHT22;27377;50.666;9.150;2022-10-22T07:21:14;13.90;99.90
41694;DHT22;27377;50.666;9.150;2022-10-22T07:23:40;13.90;99.90
41694;DHT22;27377;50.666;9.150;2022-10-22T07:26:06;13.90;99.90
41694;DHT22;27377;50.666;9.150;2022-10-22T07:28:34;13.90;99.90
41694;DHT22;27377;50.666;9.150;2022-10-22T07:31:01;13.90;99.90
41694;DHT22;27377;50.666;9.150;2022-10-22T07:33:27;14.00;99.90
41694;DHT22;27377;50.666;9.150;2022-10-22T07:36:00;14.00;99.90
41694;DHT22;27377;50.666;9.150;2022-10-22T07:38:27;14.00;99.90
41694;DHT22;27377;50.666;9.150;2022-10-22T07:40:53;14.00;99.90
41694;DHT22;27377;50.666;9.150;2022-10-22T07:43:18;14.00;99.90
41694;DHT22;27377;50.666;9.150;2022-10-22T07:45:44;14.00;99.90
41694;DHT22;27377;50.666;9.150;2022-10-22T07:48:10;14.10;99.90
41694;DHT22;27377;50.666;9.150;2022-10-22T07:50:36;14.10;99.90
41694;DHT22;27377;50.666;9.150;2022-10-22T07:53:01;14.00;99.90
41694;DHT22;27377;50.666;9.150;2022-10-22T07:55:27;14.10;99.90
41694;DHT22;27377;50.666;9.150;2022-10-22T07:57:53;14.10;99.90
41694;DHT22;27377;50.666;9.150;2022-10-22T08:00:18;14.10;99.90
41694;DHT22;27377;50.666;9.150;2022-10-22T08:02:44;14.10;99.90
41694;DHT22;27377;50.666;9.150;2022-10-22T08:05:10;14.10;99.90
41694;DHT22;27377;50.666;9.150;2022-10-22T08:07:37;14.00;99.90
41694;DHT22;27377;50.666;9.150;2022-10-22T08:10:03;14.10;99.90
41694;DHT22;27377;50.666;9.150;2022-10-22T08:12:29;14.00;99.90
41694;DHT22;27377;50.666;9.150;2022-10-22T08:14:54;14.00;99.90
41694;DHT22;27377;50.666;9.150;2022-10-22T08:17:20;14.00;99.90
41694;DHT22;27377;50.666;9.150;2022-10-22T08:19:45;14.00;99.90
41694;DHT22;27377;50.666;9.150;2022-10-22T08:22:11;14.00;99.90
41694;DHT22;27377;50.666;9.150;2022-10-22T08:24:36;14.00;99.90
41694;DHT22;27377;50.666;9.150;2022-10-22T08:27:02;14.00;99.90
41694;DHT22;27377;50.666;9.150;2022-10-22T08:29:28;14.00;99.90
41694;DHT22;27377;50.666;9.150;2022-10-22T08:31:53;14.10;99.90
41694;DHT22;27377;50.666;9.150;2022-10-22T08:34:19;14.10;99.90
41694;DHT22;27377;50.666;9.150;2022-10-22T08:36:45;14.10;99.90
41694;DHT22;27377;50.666;9.150;2022-10-22T08:39:11;14.10;99.90
41694;DHT22;27377;50.666;9.150;2022-10-22T08:48:07;14.10;99.90
41694;DHT22;27377;50.666;9.150;2022-10-22T08:50:46;14.10;99.90
41694;DHT22;27377;50.666;9.150;2022-10-22T08:53:18;14.20;99.90
41694;DHT22;27377;50.666;9.150;2022-10-22T08:55:46;14.20;99.90
41694;DHT22;27377;50.666;9.150;2022-10-22T08:58:51;14.20;99.90
41694;DHT22;27377;50.666;9.150;2022-10-22T09:01:28;14.20;99.90
41694;DHT22;27377;50.666;9.150;2022-10-22T09:06:40;14.20;99.90
41694;DHT22;27377;50.666;9.150;2022-10-22T09:09:11;14.20;99.90
41694;DHT22;27377;50.666;9.150;2022-10-22T09:11:44;14.20;99.90
41694;DHT22;27377;50.666;9.150;2022-10-22T09:14:16;14.20;99.90
41694;DHT22;27377;50.666;9.150;2022-10-22T09:24:37;14.20;99.90
41694;DHT22;27377;50.666;9.150;2022-10-22T09:27:12;14.30;99.90
41694;DHT22;27377;50.666;9.150;2022-10-22T09:29:38;14.30;99.90
41694;DHT22;27377;50.666;9.150;2022-10-22T09:32:03;14.30;99.90
41694;DHT22;27377;50.666;9.150;2022-10-22T09:34:29;14.30;99.90
41694;DHT22;27377;50.666;9.150;2022-10-22T09:37:16;14.30;99.90
41694;DHT22;27377;50.666;9.150;2022-10-22T09:39:48;14.30;99.90
41694;DHT22;27377;50.666;9.150;2022-10-22T09:42:17;14.30;99.90
41694;DHT22;27377;50.666;9.150;2022-10-22T09:44:44;14.30;99.90
41694;DHT22;27377;50.666;9.150;2022-10-22T09:47:37;14.30;99.90
41694;DHT22;27377;50.666;9.150;2022-10-22T09:50:26;14.40;99.90
41694;DHT22;27377;50.666;9.150;2022-10-22T09:53:37;14.40;99.90
41694;DHT22;27377;50.666;9.150;2022-10-22T09:56:09;14.40;99.90
41694;DHT22;27377;50.666;9.150;2022-10-22T09:58:45;14.50;99.90
41694;DHT22;27377;50.666;9.150;2022-10-22T10:01:22;14.50;99.90
41694;DHT22;27377;50.666;9.150;2022-10-22T10:03:49;14.50;99.90
41694;DHT22;27377;50.666;9.150;2022-10-22T10:06:19;14.50;99.90
41694;DHT22;27377;50.666;9.150;2022-10-22T10:08:46;14.50;99.90
41694;DHT22;27377;50.666;9.150;2022-10-22T10:11:31;14.50;99.90
41694;DHT22;27377;50.666;9.150;2022-10-22T10:14:19;14.60;99.90
41694;DHT22;27377;50.666;9.150;2022-10-22T10:16:57;14.50;99.90
41694;DHT22;27377;50.666;9.150;2022-10-22T10:22:28;14.50;99.90
41694;DHT22;27377;50.666;9.150;2022-10-22T10:25:13;14.60;99.90
41694;DHT22;27377;50.666;9.150;2022-10-22T10:27:48;14.60;99.90
41694;DHT22;27377;50.666;9.150;2022-10-22T10:30:18;14.60;99.90
41694;DHT22;27377;50.666;9.150;2022-10-22T10:38:31;14.70;99.90
41694;DHT22;27377;50.666;9.150;2022-10-22T10:49:39;14.80;99.90
41694;DHT22;27377;50.666;9.150;2022-10-22T10:52:33;14.80;99.90
41694;DHT22;27377;50.666;9.150;2022-10-22T10:55:37;14.80;99.90
41694;DHT22;27377;50.666;9.150;2022-10-22T10:58:20;14.80;99.90
41694;DHT22;27377;50.666;9.150;2022-10-22T11:00:55;14.90;99.90
41694;DHT22;27377;50.666;9.150;2022-10-22T11:03:52;14.90;99.90
41694;DHT22;27377;50.666;9.150;2022-10-22T11:06:20;14.90;99.90
41694;DHT22;27377;50.666;9.150;2022-10-22T11:08:56;14.90;99.90
41694;DHT22;27377;50.666;9.150;2022-10-22T11:11:38;14.90;99.90
41694;DHT22;27377;50.666;9.150;2022-10-22T11:14:26;15.00;99.90
41694;DHT22;27377;50.666;9.150;2022-10-22T11:17:07;14.90;99.90
41694;DHT22;27377;50.666;9.150;2022-10-22T11:19:49;15.00;99.90
41694;DHT22;27377;50.666;9.150;2022-10-22T11:22:28;14.90;99.90
41694;DHT22;27377;50.666;9.150;2022-10-22T11:25:03;14.90;99.90
41694;DHT22;27377;50.666;9.150;2022-10-22T11:27:55;15.00;99.90
41694;DHT22;27377;50.666;9.150;2022-10-22T11:30:24;15.00;99.90
41694;DHT22;27377;50.666;9.150;2022-10-22T11:32:56;15.00;99.90
41694;DHT22;27377;50.666;9.150;2022-10-22T11:35:32;15.00;99.90
41694;DHT22;27377;50.666;9.150;2022-10-22T11:38:00;15.00;99.90
41694;DHT22;27377;50.666;9.150;2022-10-22T11:40:36;15.00;99.90
41694;DHT22;27377;50.666;9.150;2022-10-22T11:43:08;15.00;99.90
41694;DHT22;27377;50.666;9.150;2022-10-22T11:45:37;15.00;99.90
41694;DHT22;27377;50.666;9.150;2022-10-22T11:48:17;15.00;99.90
41694;DHT22;27377;50.666;9.150;2022-10-22T11:50:48;15.00;99.90
41694;DHT22;27377;50.666;9.150;2022-10-22T11:56:24;15.00;99.90
41694;DHT22;27377;50.666;9.150;2022-10-22T11:58:43;15.00;99.90
41694;DHT22;27377;50.666;9.150;2022-10-22T12:03:41;15.00;99.90
41694;DHT22;27377;50.666;9.150;2022-10-22T12:11:36;15.00;99.90
41694;DHT22;27377;50.666;9.150;2022-10-22T12:14:33;14.90;99.90
41694;DHT22;27377;50.666;9.150;2022-10-22T12:17:10;14.90;99.90
41694;DHT22;27377;50.666;9.150;2022-10-22T12:19:43;14.90;99.90
41694;DHT22;27377;50.666;9.150;2022-10-22T12:22:14;14.90;99.90
41694;DHT22;27377;50.666;9.150;2022-10-22T12:24:43;14.90;99.90
41694;DHT22;27377;50.666;9.150;2022-10-22T12:27:21;14.90;99.90
41694;DHT22;27377;50.666;9.150;2022-10-22T12:29:52;14.90;99.90
41694;DHT22;27377;50.666;9.150;2022-10-22T12:32:18;14.90;99.90
41694;DHT22;27377;50.666;9.150;2022-10-22T12:34:48;14.90;99.90
41694;DHT22;27377;50.666;9.150;2022-10-22T12:37:16;14.90;99.90
41694;DHT22;27377;50.666;9.150;2022-10-22T12:39:43;14.90;99.90
41694;DHT22;27377;50.666;9.150;2022-10-22T12:42:13;14.90;99.90
41694;DHT22;27377;50.666;9.150;2022-10-22T12:44:39;14.90;99.90
41694;DHT22;27377;50.666;9.150;2022-10-22T12:47:06;14.90;99.90
41694;DHT22;27377;50.666;9.150;2022-10-22T12:49:38;14.90;99.90
41694;DHT22;27377;50.666;9.150;2022-10-22T12:52:06;14.90;99.90
41694;DHT22;27377;50.666;9.150;2022-10-22T12:54:36;14.90;99.90
41694;DHT22;27377;50.666;9.150;2022-10-22T12:57:02;14.90;99.90
41694;DHT22;27377;50.666;9.150;2022-10-22T12:59:36;14.90;99.90
41694;DHT22;27377;50.666;9.150;2022-10-22T13:02:28;14.90;99.90
41694;DHT22;27377;50.666;9.150;2022-10-22T13:05:29;14.90;99.90
41694;DHT22;27377;50.666;9.150;2022-10-22T13:08:10;14.90;99.90
41694;DHT22;27377;50.666;9.150;2022-10-22T13:10:39;14.90;99.90
41694;DHT22;27377;50.666;9.150;2022-10-22T13:13:05;14.90;99.90
41694;DHT22;27377;50.666;9.150;2022-10-22T13:15:33;14.90;99.90
41694;DHT22;27377;50.666;9.150;2022-10-22T13:20:30;15.00;99.90
41694;DHT22;27377;50.666;9.150;2022-10-22T13:23:01;15.00;99.90
41694;DHT22;27377;50.666;9.150;2022-10-22T13:25:57;15.00;99.90
41694;DHT22;27377;50.666;9.150;2022-10-22T13:28:24;15.00;99.90
41694;DHT22;27377;50.666;9.150;2022-10-22T13:30:59;15.00;99.90
41694;DHT22;27377;50.666;9.150;2022-10-22T13:35:55;15.00;99.90
41694;DHT22;27377;50.666;9.150;2022-10-22T13:38:22;15.10;99.90
41694;DHT22;27377;50.666;9.150;2022-10-22T13:40:48;15.00;99.90
41694;DHT22;27377;50.666;9.150;2022-10-22T13:43:15;15.00;99.90
41694;DHT22;27377;50.666;9.150;2022-10-22T13:45:42;15.00;99.90
41694;DHT22;27377;50.666;9.150;2022-10-22T13:48:15;15.00;99.90
41694;DHT22;27377;50.666;9.150;2022-10-22T13:50:41;15.00;99.90
41694;DHT22;27377;50.666;9.150;2022-10-22T13:53:15;15.00;99.90
41694;DHT22;27377;50.666;9.150;2022-10-22T13:55:43;15.00;99.90
41694;DHT22;27377;50.666;9.150;2022-10-22T13:58:13;15.00;99.90
41694;DHT22;27377;50.666;9.150;2022-10-22T14:00:43;15.10;99.90
41694;DHT22;27377;50.666;9.150;2022-10-22T14:03:12;15.00;99.90
41694;DHT22;27377;50.666;9.150;2022-10-22T14:05:38;15.00;99.90
41694;DHT22;27377;50.666;9.150;2022-10-22T14:08:10;15.00;99.90
41694;DHT22;27377;50.666;9.150;2022-10-22T14:10:36;15.00;99.90
41694;DHT22;27377;50.666;9.150;2022-10-22T14:13:04;15.00;99.90
41694;DHT22;27377;50.666;9.150;2022-10-22T14:15:30;15.00;99.90
41694;DHT22;27377;50.666;9.150;2022-10-22T14:17:57;15.00;99.90
41694;DHT22;27377;50.666;9.150;2022-10-22T14:20:27;15.00;99.90
41694;DHT22;27377;50.666;9.150;2022-10-22T14:22:53;15.00;99.90
41694;DHT22;27377;50.666;9.150;2022-10-22T14:25:22;15.00;99.90
41694;DHT22;27377;50.666;9.150;2022-10-22T14:27:48;15.00;99.90
41694;DHT22;27377;50.666;9.150;2022-10-22T14:30:20;15.00;99.90
41694;DHT22;27377;50.666;9.150;2022-10-22T14:32:46;15.00;99.90
41694;DHT22;27377;50.666;9.150;2022-10-22T14:35:18;15.00;99.90
41694;DHT22;27377;50.666;9.150;2022-10-22T14:37:45;15.00;99.90
41694;DHT22;27377;50.666;9.150;2022-10-22T14:40:16;15.00;99.90
41694;DHT22;27377;50.666;9.150;2022-10-22T14:42:45;15.00;99.90
41694;DHT22;27377;50.666;9.150;2022-10-22T14:45:23;15.00;99.90
41694;DHT22;27377;50.666;9.150;2022-10-22T14:47:49;15.00;99.90
41694;DHT22;27377;50.666;9.150;2022-10-22T14:50:16;15.00;99.90
41694;DHT22;27377;50.666;9.150;2022-10-22T14:52:42;15.00;99.90
41694;DHT22;27377;50.666;9.150;2022-10-22T14:55:11;15.00;99.90
41694;DHT22;27377;50.666;9.150;2022-10-22T14:57:38;15.00;99.90
41694;DHT22;27377;50.666;9.150;2022-10-22T15:00:07;15.00;99.90
41694;DHT22;27377;50.666;9.150;2022-10-22T15:02:33;15.00;99.90
41694;DHT22;27377;50.666;9.150;2022-10-22T15:04:59;15.00;99.90
41694;DHT22;27377;50.666;9.150;2022-10-22T15:07:24;15.00;99.90
41694;DHT22;27377;50.666;9.150;2022-10-22T15:09:52;15.00;99.90
41694;DHT22;27377;50.666;9.150;2022-10-22T15:12:17;15.00;99.90
41694;DHT22;27377;50.666;9.150;2022-10-22T15:14:48;15.00;99.90
41694;DHT22;27377;50.666;9.150;2022-10-22T15:17:14;15.00;99.90
41694;DHT22;27377;50.666;9.150;2022-10-22T15:19:40;15.00;99.90
41694;DHT22;27377;50.666;9.150;2022-10-22T15:22:08;15.00;99.90
41694;DHT22;27377;50.666;9.150;2022-10-22T15:24:34;15.00;99.90
41694;DHT22;27377;50.666;9.150;2022-10-22T15:26:59;15.00;99.90
41694;DHT22;27377;50.666;9.150;2022-10-22T15:29:25;15.00;99.90
41694;DHT22;27377;50.666;9.150;2022-10-22T15:31:53;15.00;99.90
41694;DHT22;27377;50.666;9.150;2022-10-22T15:34:25;15.00;99.90
41694;DHT22;27377;50.666;9.150;2022-10-22T15:36:54;15.00;99.90
41694;DHT22;27377;50.666;9.150;2022-10-22T15:39:20;14.90;99.90
41694;DHT22;27377;50.666;9.150;2022-10-22T15:41:46;14.90;99.90
41694;DHT22;27377;50.666;9.150;2022-10-22T15:44:18;14.90;99.90
41694;DHT22;27377;50.666;9.150;2022-10-22T15:46:43;14.90;99.90
41694;DHT22;27377;50.666;9.150;2022-10-22T15:49:09;14.90;99.90
41694;DHT22;27377;50.666;9.150;2022-10-22T15:51:34;14.90;99.90
41694;DHT22;27377;50.666;9.150;2022-10-22T15:54:00;14.90;99.90
41694;DHT22;27377;50.666;9.150;2022-10-22T15:56:27;14.90;99.90
41694;DHT22;27377;50.666;9.150;2022-10-22T15:58:55;14.90;99.90
41694;DHT22;27377;50.666;9.150;2022-10-22T16:01:22;14.90;99.90
41694;DHT22;27377;50.666;9.150;2022-10-22T16:03:50;14.90;99.90
41694;DHT22;27377;50.666;9.150;2022-10-22T16:06:18;14.80;99.90
41694;DHT22;27377;50.666;9.150;2022-10-22T16:08:44;14.80;99.90
41694;DHT22;27377;50.666;9.150;2022-10-22T16:11:09;14.80;99.90
41694;DHT22;27377;50.666;9.150;2022-10-22T16:13:35;14.80;99.90
41694;DHT22;27377;50.666;9.150;2022-10-22T16:16:04;14.80;99.90
41694;DHT22;27377;50.666;9.150;2022-10-22T16:18:30;14.80;99.90
41694;DHT22;27377;50.666;9.150;2022-10-22T16:20:56;14.80;99.90
41694;DHT22;27377;50.666;9.150;2022-10-22T16:23:22;14.70;99.90
41694;DHT22;27377;50.666;9.150;2022-10-22T16:25:47;14.70;99.90
41694;DHT22;27377;50.666;9.150;2022-10-22T16:28:13;14.70;99.90
41694;DHT22;27377;50.666;9.150;2022-10-22T16:30:39;14.70;99.90
41694;DHT22;27377;50.666;9.150;2022-10-22T16:33:05;14.70;99.90
41694;DHT22;27377;50.666;9.150;2022-10-22T16:35:31;14.60;99.90
41694;DHT22;27377;50.666;9.150;2022-10-22T16:37:57;14.60;99.90
41694;DHT22;27377;50.666;9.150;2022-10-22T16:40:23;14.60;99.90
41694;DHT22;27377;50.666;9.150;2022-10-22T16:42:49;14.50;99.90
41694;DHT22;27377;50.666;9.150;2022-10-22T16:45:15;14.50;99.90
41694;DHT22;27377;50.666;9.150;2022-10-22T16:47:41;14.60;99.90
41694;DHT22;27377;50.666;9.150;2022-10-22T16:50:08;14.50;99.90
41694;DHT22;27377;50.666;9.150;2022-10-22T16:52:34;14.50;99.90
41694;DHT22;27377;50.666;9.150;2022-10-22T16:55:00;14.40;99.90
41694;DHT22;27377;50.666;9.150;2022-10-22T16:57:26;14.40;99.90